Time;durP1;ratioP1;P1;durP2;ratioP2;P2;SDS_P1;SDS_P2;PMS_P1;PMS_P2;Temp;Humidity;BMP_temperature;BMP_pressure;BME280_temperature;BME280_humidity;BME280_pressure;Samples;Min_cycle;Max_cycle;Signal;HPM_P1;HPM_P2
2021/01/12 00:02:21;;;;;;;21.83;14.45;;;;;;;0.87;70.29;98922.97;5099464;28;20498;-64
2021/01/12 00:04:49;;;;;;;24.48;15.75;;;;;;;0.87;70.51;98922.97;5097424;28;20090;-64
2021/01/12 00:07:19;;;;;;;23.88;15.23;;;;;;;0.85;70.50;98918.81;5098419;28;20044;-64
2021/01/12 00:09:46;;;;;;;21.27;14.60;;;;;;;0.84;70.70;98928.41;5097649;28;20422;-64
2021/01/12 00:12:12;;;;;;;24.95;15.45;;;;;;;0.81;70.76;98923.44;5099124;28;20055;-64
2021/01/12 00:14:40;;;;;;;24.35;15.20;;;;;;;0.79;70.80;98921.94;5098666;28;20048;-64
2021/01/12 00:17:08;;;;;;;22.70;14.02;;;;;;;0.77;70.81;98921.22;5098083;28;20105;-64
2021/01/12 00:19:37;;;;;;;22.38;14.70;;;;;;;0.75;70.99;98913.56;5098030;28;20486;-64
2021/01/12 00:22:07;;;;;;;23.30;14.68;;;;;;;0.69;71.07;98907.09;5099041;28;20052;-64
2021/01/12 00:24:35;;;;;;;22.33;14.52;;;;;;;0.71;71.24;98909.56;5099222;28;20068;-64
2021/01/12 00:27:02;;;;;;;24.00;14.88;;;;;;;0.75;70.99;98905.75;5096943;28;20083;-64
2021/01/12 00:29:29;;;;;;;23.23;14.00;;;;;;;0.80;71.13;98903.59;5099092;28;20440;-64
2021/01/12 00:31:56;;;;;;;24.77;16.02;;;;;;;0.87;71.03;98896.09;5098460;28;20062;-64
2021/01/12 00:34:24;;;;;;;23.60;14.18;;;;;;;0.85;71.01;98888.41;5098363;28;20111;-64
2021/01/12 00:36:52;;;;;;;22.85;15.00;;;;;;;0.81;71.05;98902.63;5097635;28;20139;-64
2021/01/12 00:39:20;;;;;;;23.80;15.90;;;;;;;0.75;71.22;98895.34;5098376;28;20095;-64
2021/01/12 00:41:47;;;;;;;24.35;14.55;;;;;;;0.78;71.20;98897.72;5099048;28;20036;-64
2021/01/12 00:44:14;;;;;;;22.02;14.23;;;;;;;0.89;71.15;98891.59;5097918;28;20753;-64
2021/01/12 00:46:43;;;;;;;22.95;14.38;;;;;;;0.95;71.18;98902.31;5098304;28;20048;-64
2021/01/12 00:49:12;;;;;;;26.90;14.68;;;;;;;0.96;70.92;98901.34;5097652;28;20040;-64
2021/01/12 00:51:40;;;;;;;23.70;14.90;;;;;;;0.99;70.97;98913.28;5098041;28;20040;-64
2021/01/12 00:54:09;;;;;;;23.88;13.85;;;;;;;0.99;70.86;98916.72;5098119;28;20044;-64
2021/01/12 00:56:47;;;;;;;22.70;14.60;;;;;;;1.03;70.83;98913.88;5098310;28;20044;-64
2021/01/12 00:59:14;;;;;;;25.08;14.75;;;;;;;1.08;70.71;98916.91;5097905;28;20043;-64
2021/01/12 01:01:42;;;;;;;22.40;14.73;;;;;;;1.15;70.85;98907.63;5098367;28;20055;-64
2021/01/12 01:04:12;;;;;;;20.73;13.55;;;;;;;1.06;70.83;98909.22;5098074;28;20093;-64
2021/01/12 01:06:40;;;;;;;22.48;13.85;;;;;;;1.03;70.96;98906.88;5096458;28;20055;-64
2021/01/12 01:09:08;;;;;;;22.48;14.60;;;;;;;1.03;71.02;98896.47;5098536;28;20074;-64
2021/01/12 01:11:40;;;;;;;19.63;13.48;;;;;;;0.99;71.29;98898.50;5097687;28;20051;-64
2021/01/12 01:14:07;;;;;;;20.25;13.75;;;;;;;1.01;71.23;98887.13;5097782;28;20040;-64
2021/01/12 01:16:35;;;;;;;21.20;13.90;;;;;;;1.05;71.05;98875.50;5096996;28;20046;-64
2021/01/12 01:19:01;;;;;;;20.17;13.70;;;;;;;1.04;70.94;98876.47;5096645;28;20079;-64
2021/01/12 01:21:29;;;;;;;23.58;14.38;;;;;;;1.08;71.18;98868.25;5097730;28;20051;-64
2021/01/12 01:23:56;;;;;;;22.52;13.60;;;;;;;1.03;71.10;98865.22;5098099;28;20040;-64
2021/01/12 01:26:23;;;;;;;20.20;13.30;;;;;;;1.04;71.38;98860.84;5097749;28;20446;-64
2021/01/12 01:28:49;;;;;;;19.02;12.43;;;;;;;1.10;71.13;98862.91;5097106;28;20052;-64
2021/01/12 01:31:16;;;;;;;21.80;13.77;;;;;;;1.13;71.11;98854.84;5097784;28;20482;-64
2021/01/12 01:33:45;;;;;;;19.27;13.38;;;;;;;1.07;71.26;98851.00;5097901;28;20100;-64
2021/01/12 01:36:13;;;;;;;23.25;12.82;;;;;;;1.10;71.23;98853.34;5095886;28;20063;-64
2021/01/12 01:38:40;;;;;;;19.83;12.45;;;;;;;1.15;71.24;98845.94;5097455;28;20581;-64
2021/01/12 01:41:09;;;;;;;20.35;13.15;;;;;;;1.16;71.24;98850.19;5096511;28;20096;-64
2021/01/12 01:43:37;;;;;;;19.38;12.82;;;;;;;1.22;71.17;98849.69;5096673;28;20059;-64
2021/01/12 01:46:05;;;;;;;21.63;12.68;;;;;;;1.17;71.09;98849.22;5096301;28;20044;-64
2021/01/12 01:48:34;;;;;;;19.40;12.95;;;;;;;1.22;71.06;98836.66;5095027;28;20090;-64
2021/01/12 01:51:02;;;;;;;24.65;12.73;;;;;;;1.23;70.83;98843.50;5099035;28;20050;-64
2021/01/12 01:53:33;;;;;;;19.23;12.25;;;;;;;1.24;71.13;98833.91;5100455;28;20052;-63
2021/01/12 01:56:04;;;;;;;19.73;12.48;;;;;;;1.26;71.35;98839.81;5100739;28;20478;-64
2021/01/12 01:58:31;;;;;;;20.08;12.07;;;;;;;1.29;71.42;98828.31;5099890;28;20489;-64
2021/01/12 02:00:58;;;;;;;21.00;12.88;;;;;;;1.29;71.33;98838.72;5099221;28;20036;-64
2021/01/12 02:03:30;;;;;;;20.38;12.60;;;;;;;1.27;71.51;98827.63;5107773;28;20116;-64
2021/01/12 02:06:01;;;;;;;19.23;12.55;;;;;;;1.27;71.60;98830.22;5107121;28;20052;-64
2021/01/12 02:08:37;;;;;;;19.30;13.20;;;;;;;1.22;71.89;98826.25;5101793;28;20058;-64
2021/01/12 02:11:05;;;;;;;18.35;12.82;;;;;;;1.23;72.01;98812.25;5098913;28;20044;-64
2021/01/12 02:13:33;;;;;;;19.90;12.73;;;;;;;1.24;72.08;98818.28;5100960;28;20099;-64
2021/01/12 02:16:01;;;;;;;16.30;11.43;;;;;;;1.21;72.25;98800.31;5102857;28;20078;-64
2021/01/12 02:18:34;;;;;;;18.42;12.50;;;;;;;1.14;72.83;98807.84;5106062;28;20060;-64
2021/01/12 02:21:03;;;;;;;22.35;13.10;;;;;;;1.14;73.03;98794.84;5098295;28;20040;-64
2021/01/12 02:23:32;;;;;;;19.77;13.48;;;;;;;1.18;73.28;98803.19;5099297;28;20092;-64
2021/01/12 02:26:02;;;;;;;20.63;13.02;;;;;;;1.17;73.30;98786.75;5098477;28;20050;-64
2021/01/12 02:28:29;;;;;;;21.92;13.10;;;;;;;1.09;73.69;98786.59;5096855;28;20134;-64
2021/01/12 02:30:57;;;;;;;20.08;13.63;;;;;;;1.17;73.75;98785.91;5098022;28;20036;-64
2021/01/12 02:33:24;;;;;;;20.15;12.80;;;;;;;1.13;74.21;98780.16;5104797;28;20451;-64
2021/01/12 02:35:54;;;;;;;22.63;13.38;;;;;;;1.17;74.35;98765.91;5104462;28;20052;-64
2021/01/12 02:38:22;;;;;;;19.45;12.40;;;;;;;1.16;74.36;98774.69;5106616;28;20096;-64
2021/01/12 02:40:49;;;;;;;18.67;12.63;;;;;;;1.05;75.31;98776.56;5106601;28;20119;-64
2021/01/12 02:43:16;;;;;;;20.52;13.30;;;;;;;1.06;75.21;98754.78;5106538;28;20051;-64
2021/01/12 02:45:43;;;;;;;21.25;13.30;;;;;;;1.08;75.28;98745.06;5105427;28;20048;-64
2021/01/12 02:48:10;;;;;;;21.02;13.20;;;;;;;1.07;75.63;98752.06;5108109;28;20044;-64
2021/01/12 02:50:37;;;;;;;22.10;13.00;;;;;;;1.07;75.78;98741.66;5110734;28;20059;-64
2021/01/12 02:53:03;;;;;;;21.17;13.57;;;;;;;1.11;75.96;98737.00;5116789;28;20040;-64
2021/01/12 02:55:30;;;;;;;25.80;14.27;;;;;;;1.14;76.00;98741.91;5111670;28;20064;-64
2021/01/12 02:57:57;;;;;;;21.50;13.27;;;;;;;1.16;75.96;98729.59;5104538;28;20044;-64
2021/01/12 03:00:25;;;;;;;19.88;12.82;;;;;;;1.15;76.28;98733.16;5100877;28;20048;-64
2021/01/12 03:02:51;;;;;;;17.60;11.80;;;;;;;1.10;76.54;98711.91;5102461;28;20043;-64
2021/01/12 03:05:18;;;;;;;19.60;12.68;;;;;;;1.09;76.57;98711.06;5102190;28;20061;-64
2021/01/12 03:07:45;;;;;;;16.42;11.65;;;;;;;1.08;76.89;98732.06;5102456;28;20500;-64
2021/01/12 03:10:12;;;;;;;22.15;13.88;;;;;;;1.15;76.87;98717.53;5102406;28;20078;-63
2021/01/12 03:12:39;;;;;;;18.63;11.60;;;;;;;1.05;77.33;98725.31;5102277;28;20050;-63
2021/01/12 03:15:07;;;;;;;18.70;12.20;;;;;;;1.06;77.71;98720.94;5100090;28;20538;-63
2021/01/12 03:17:35;;;;;;;20.05;12.48;;;;;;;1.05;77.82;98696.69;5100822;28;20078;-63
2021/01/12 03:20:02;;;;;;;20.60;13.18;;;;;;;1.08;78.17;98706.00;5101634;28;20056;-63
2021/01/12 03:22:29;;;;;;;18.15;12.68;;;;;;;1.08;78.06;98696.41;5101335;28;20047;-63
2021/01/12 03:25:00;;;;;;;19.67;13.02;;;;;;;1.11;78.16;98700.53;5099911;28;20051;-63
2021/01/12 03:27:26;;;;;;;21.42;12.45;;;;;;;1.12;78.12;98679.56;5102837;28;20051;-63
2021/01/12 03:29:53;;;;;;;19.92;12.20;;;;;;;1.12;78.06;98682.19;5102429;28;20119;-63
2021/01/12 03:32:20;;;;;;;17.60;11.98;;;;;;;1.06;78.07;98687.09;5102426;28;20052;-63
2021/01/12 03:34:48;;;;;;;19.05;13.15;;;;;;;1.12;77.97;98665.75;5100160;28;20068;-63
2021/01/12 03:37:15;;;;;;;18.15;11.20;;;;;;;1.15;77.98;98674.09;5103525;28;20122;-63
2021/01/12 03:39:42;;;;;;;17.00;11.70;;;;;;;1.16;78.05;98660.13;5102233;28;20515;-63
2021/01/12 03:42:09;;;;;;;17.77;11.18;;;;;;;1.12;78.42;98653.53;5103044;28;20046;-63
2021/01/12 03:44:36;;;;;;;18.77;12.20;;;;;;;1.08;78.39;98646.97;5099868;28;20490;-63
2021/01/12 03:47:03;;;;;;;15.88;11.07;;;;;;;1.13;78.55;98644.75;5098295;28;20075;-63
2021/01/12 03:49:30;;;;;;;17.38;11.80;;;;;;;1.13;78.40;98636.94;5096778;28;20054;-63
2021/01/12 03:51:57;;;;;;;17.10;11.65;;;;;;;1.18;78.46;98646.94;5099841;28;20474;-63
2021/01/12 03:54:24;;;;;;;17.95;11.27;;;;;;;1.14;78.45;98636.00;5103029;28;20044;-63
2021/01/12 03:56:51;;;;;;;16.27;11.25;;;;;;;1.18;78.13;98632.19;5101270;28;20129;-63
2021/01/12 03:59:18;;;;;;;15.80;10.50;;;;;;;1.10;78.53;98613.81;5101031;28;20068;-63
2021/01/12 04:01:44;;;;;;;19.80;11.20;;;;;;;1.18;78.52;98628.72;5103425;28;20048;-63
2021/01/12 04:04:11;;;;;;;17.40;11.52;;;;;;;1.18;78.40;98613.09;5104907;28;20036;-63
2021/01/12 04:06:38;;;;;;;14.57;10.73;;;;;;;1.20;78.43;98614.63;5100681;28;20099;-63
2021/01/12 04:09:06;;;;;;;15.70;9.93;;;;;;;1.14;78.56;98614.34;5115551;28;20040;-64
2021/01/12 04:11:34;;;;;;;17.23;10.88;;;;;;;1.18;78.49;98589.66;5109018;28;20420;-65
2021/01/12 04:14:01;;;;;;;15.43;10.30;;;;;;;1.18;78.52;98600.94;5103117;28;20131;-65
2021/01/12 04:16:28;;;;;;;17.33;10.73;;;;;;;1.14;78.63;98611.72;5104814;28;20047;-65
2021/01/12 04:18:55;;;;;;;16.42;10.82;;;;;;;1.14;78.39;98590.91;5104406;28;20052;-65
2021/01/12 04:21:22;;;;;;;14.88;10.20;;;;;;;1.09;78.71;98580.91;5101864;28;20054;-65
2021/01/12 04:23:49;;;;;;;14.27;9.75;;;;;;;1.10;78.93;98579.97;5098724;28;20040;-65
2021/01/12 04:26:16;;;;;;;14.00;10.15;;;;;;;1.15;78.85;98567.34;5097151;28;20047;-65
2021/01/12 04:28:44;;;;;;;13.25;9.07;;;;;;;1.11;78.73;98576.41;5097519;28;20397;-65
2021/01/12 04:31:10;;;;;;;12.60;8.85;;;;;;;1.11;78.76;98580.78;5097328;28;20051;-65
2021/01/12 04:33:38;;;;;;;14.57;10.13;;;;;;;1.16;78.71;98574.19;5098974;28;20097;-65
2021/01/12 04:36:05;;;;;;;13.85;8.93;;;;;;;1.18;78.76;98566.22;5102137;28;20048;-65
2021/01/12 04:38:32;;;;;;;14.18;9.57;;;;;;;1.17;78.83;98570.63;5100950;28;20055;-65
2021/01/12 04:40:59;;;;;;;12.68;8.93;;;;;;;1.15;78.76;98564.75;5102343;28;20048;-65
2021/01/12 04:43:27;;;;;;;12.95;8.95;;;;;;;1.17;78.63;98557.59;5101698;28;20131;-65
2021/01/12 04:45:54;;;;;;;12.60;8.65;;;;;;;1.22;78.57;98560.63;5100299;28;20054;-65
2021/01/12 04:48:21;;;;;;;13.90;8.68;;;;;;;1.20;78.63;98556.50;5100742;28;20044;-65
2021/01/12 04:50:48;;;;;;;13.77;8.57;;;;;;;1.20;78.63;98546.09;5101637;28;20416;-65
2021/01/12 04:53:14;;;;;;;12.20;8.55;;;;;;;1.20;78.69;98533.06;5100368;28;20040;-65
2021/01/12 04:55:42;;;;;;;14.15;8.95;;;;;;;1.15;78.78;98528.28;5099538;28;20047;-65
2021/01/12 04:58:09;;;;;;;12.73;8.45;;;;;;;1.24;78.75;98545.69;5101045;28;20044;-65
2021/01/12 05:00:38;;;;;;;11.73;8.35;;;;;;;1.27;78.83;98541.16;5100684;28;20104;-65
2021/01/12 05:03:06;;;;;;;11.85;8.70;;;;;;;1.29;78.71;98531.41;5100785;28;20048;-65
2021/01/12 05:05:37;;;;;;;13.63;8.20;;;;;;;1.25;78.80;98528.25;5099549;28;20047;-65
2021/01/12 05:08:07;;;;;;;13.50;9.35;;;;;;;1.26;78.92;98522.09;5100199;28;20476;-65
2021/01/12 05:10:37;;;;;;;15.75;10.48;;;;;;;1.28;78.95;98508.94;5100181;28;20040;-65
2021/01/12 05:13:05;;;;;;;15.38;9.65;;;;;;;1.31;79.25;98509.50;5097641;28;20040;-65
2021/01/12 05:15:32;;;;;;;12.05;8.52;;;;;;;1.30;79.07;98504.41;5095903;28;20441;-65
2021/01/12 05:18:04;;;;;;;12.05;8.43;;;;;;;1.35;79.28;98515.25;5095951;28;20063;-64
2021/01/12 05:20:37;;;;;;;12.55;8.63;;;;;;;1.35;79.21;98508.25;5096608;28;20485;-65
2021/01/12 05:23:07;;;;;;;13.43;9.10;;;;;;;1.35;79.20;98495.22;5096481;28;20059;-65
2021/01/12 05:25:36;;;;;;;14.02;9.48;;;;;;;1.29;79.47;98500.97;5094909;28;20044;-65
2021/01/12 05:28:04;;;;;;;13.95;9.35;;;;;;;1.31;79.49;98493.88;5097188;28;20040;-65
2021/01/12 05:30:31;;;;;;;11.68;7.35;;;;;;;1.36;79.66;98460.41;5095530;28;20047;-65
2021/01/12 05:32:59;;;;;;;14.02;8.93;;;;;;;1.31;79.78;98469.59;5095244;28;20040;-64
2021/01/12 05:35:30;;;;;;;12.65;8.90;;;;;;;1.29;79.98;98463.72;5095097;28;20120;-65
2021/01/12 05:38:02;;;;;;;12.68;9.23;;;;;;;1.30;80.31;98460.94;5095857;28;20040;-65
2021/01/12 05:40:34;;;;;;;13.45;8.98;;;;;;;1.32;80.20;98461.63;5095088;28;20509;-65
2021/01/12 05:43:08;;;;;;;13.18;8.27;;;;;;;1.29;80.24;98464.53;5097420;28;20059;-65
2021/01/12 05:45:36;;;;;;;12.23;8.88;;;;;;;1.27;80.33;98469.06;5095529;28;20040;-65
2021/01/12 05:48:05;;;;;;;13.63;9.20;;;;;;;1.27;80.58;98457.84;5099364;28;20417;-65
2021/01/12 05:50:33;;;;;;;12.75;9.05;;;;;;;1.31;80.57;98454.81;5099512;28;20071;-65
2021/01/12 05:53:04;;;;;;;11.02;7.65;;;;;;;1.29;80.51;98450.69;5100293;28;20054;-65
2021/01/12 05:55:41;;;;;;;11.40;8.80;;;;;;;1.29;80.71;98459.31;5100765;28;20107;-65
2021/01/12 05:58:12;;;;;;;9.93;7.18;;;;;;;1.32;80.90;98456.44;5101303;28;20060;-65
2021/01/12 06:00:42;;;;;;;11.20;7.65;;;;;;;1.27;80.66;98456.03;5101610;28;20045;-65
2021/01/12 06:03:15;;;;;;;10.40;7.70;;;;;;;1.22;80.74;98443.47;5100849;28;20433;-65
2021/01/12 06:05:44;;;;;;;10.70;7.47;;;;;;;1.20;80.91;98453.19;5101385;28;20055;-65
2021/01/12 06:08:13;;;;;;;12.85;7.90;;;;;;;1.27;81.00;98439.59;5101649;28;20032;-65
2021/01/12 06:10:43;;;;;;;10.18;7.85;;;;;;;1.21;80.97;98438.38;5101541;28;20402;-65
2021/01/12 06:13:13;;;;;;;8.30;5.72;;;;;;;1.20;81.15;98436.75;5100011;28;20044;-65
2021/01/12 06:15:43;;;;;;;7.75;5.82;;;;;;;1.22;81.06;98437.41;5101869;28;20043;-66
2021/01/12 06:18:14;;;;;;;8.30;5.47;;;;;;;1.20;81.01;98429.75;5101773;28;20071;-65
2021/01/12 06:20:45;;;;;;;7.28;6.03;;;;;;;1.20;81.21;98429.75;5106193;28;20044;-65
2021/01/12 06:23:18;;;;;;;9.23;5.70;;;;;;;1.23;81.25;98447.69;5104014;28;20138;-65
2021/01/12 06:25:45;;;;;;;7.90;6.05;;;;;;;1.23;81.47;98424.25;5095805;28;20044;-65
2021/01/12 06:28:12;;;;;;;9.07;6.40;;;;;;;1.26;81.86;98425.75;5093567;28;20040;-65
2021/01/12 06:30:39;;;;;;;8.15;5.50;;;;;;;1.22;81.96;98412.22;5095502;28;20044;-65
2021/01/12 06:33:06;;;;;;;7.82;5.55;;;;;;;1.27;82.31;98405.75;5096106;28;20525;-65
2021/01/12 06:35:38;;;;;;;7.85;5.85;;;;;;;1.24;82.31;98402.47;5097259;28;20429;-65
2021/01/12 06:38:07;;;;;;;8.90;5.68;;;;;;;1.27;82.42;98401.38;5099948;28;20054;-65
2021/01/12 06:40:35;;;;;;;7.50;5.30;;;;;;;1.30;82.40;98398.44;5100836;28;20095;-65
2021/01/12 06:43:04;;;;;;;6.82;5.63;;;;;;;1.24;82.36;98401.63;5099892;28;20052;-65
2021/01/12 06:45:36;;;;;;;7.00;5.15;;;;;;;1.17;82.28;98400.56;5100893;28;20405;-65
2021/01/12 06:48:05;;;;;;;6.63;5.50;;;;;;;1.23;82.59;98400.00;5101400;28;20101;-65
2021/01/12 06:50:31;;;;;;;7.75;5.93;;;;;;;1.22;82.51;98387.94;5100033;28;20410;-65
2021/01/12 06:52:59;;;;;;;9.50;7.13;;;;;;;1.28;82.73;98394.38;5100208;28;20040;-65
2021/01/12 06:55:26;;;;;;;9.68;6.10;;;;;;;1.27;82.61;98390.13;5101815;28;20113;-65
2021/01/12 06:57:54;;;;;;;9.05;7.25;;;;;;;1.22;82.59;98391.38;5101098;28;20474;-65
2021/01/12 07:00:22;;;;;;;6.65;5.03;;;;;;;1.17;82.86;98387.53;5100892;28;20047;-65
2021/01/12 07:02:55;;;;;;;5.80;4.28;;;;;;;1.14;82.41;98393.03;5101044;28;20036;-65
2021/01/12 07:05:22;;;;;;;7.82;5.72;;;;;;;1.13;82.68;98375.78;5099339;28;20062;-65
2021/01/12 07:07:50;;;;;;;7.60;5.20;;;;;;;1.13;82.91;98394.81;5100674;28;20110;-65
2021/01/12 07:10:19;;;;;;;13.52;9.52;;;;;;;1.17;83.04;98379.72;5099704;28;20036;-65
2021/01/12 07:12:47;;;;;;;5.45;4.60;;;;;;;1.16;83.05;98385.91;5101963;28;20036;-65
2021/01/12 07:15:15;;;;;;;10.35;7.22;;;;;;;1.11;82.96;98365.50;5099980;28;20051;-65
2021/01/12 07:17:44;;;;;;;7.03;5.78;;;;;;;1.13;82.90;98383.59;5100392;28;20047;-64
2021/01/12 07:20:13;;;;;;;9.27;6.55;;;;;;;1.13;83.10;98381.81;5100432;28;20103;-64
2021/01/12 07:22:42;;;;;;;8.02;5.80;;;;;;;1.15;83.36;98386.88;5100303;28;20048;-64
2021/01/12 07:25:10;;;;;;;5.82;4.72;;;;;;;1.11;83.09;98381.13;5098464;28;20043;-64
2021/01/12 07:27:38;;;;;;;6.75;5.00;;;;;;;1.10;83.08;98369.09;5100528;28;20067;-64
2021/01/12 07:30:07;;;;;;;6.57;5.22;;;;;;;1.14;83.26;98373.06;5099922;28;20044;-64
2021/01/12 07:32:38;;;;;;;7.90;5.85;;;;;;;1.08;83.26;98373.59;5098685;28;20052;-64
2021/01/12 07:35:09;;;;;;;6.85;5.57;;;;;;;1.08;83.19;98372.78;5101107;28;20051;-64
2021/01/12 07:37:39;;;;;;;6.82;4.85;;;;;;;1.05;83.41;98380.88;5099163;28;20048;-64
2021/01/12 07:40:08;;;;;;;5.85;4.55;;;;;;;1.10;83.58;98360.44;5098639;28;20048;-64
2021/01/12 07:42:45;;;;;;;5.90;4.65;;;;;;;1.06;83.63;98370.34;5099781;28;20064;-64
2021/01/12 07:45:13;;;;;;;5.82;4.75;;;;;;;1.10;83.77;98366.50;5100029;28;20398;-64
2021/01/12 07:47:40;;;;;;;5.60;4.18;;;;;;;1.02;83.42;98355.97;5099307;28;20044;-64
2021/01/12 07:50:08;;;;;;;5.30;4.15;;;;;;;1.01;83.64;98363.91;5100127;28;20051;-64
2021/01/12 07:52:35;;;;;;;4.63;4.03;;;;;;;1.00;83.47;98355.28;5099500;28;20040;-64
2021/01/12 07:55:02;;;;;;;7.03;4.40;;;;;;;1.04;83.73;98358.41;5099472;28;20131;-64
2021/01/12 07:57:30;;;;;;;6.50;4.72;;;;;;;1.04;83.74;98363.63;5099859;28;20044;-64
2021/01/12 07:59:59;;;;;;;6.13;4.35;;;;;;;1.03;83.69;98362.00;5100004;28;20107;-64
2021/01/12 08:02:26;;;;;;;5.15;4.15;;;;;;;1.02;83.40;98369.00;5100553;28;20079;-64
2021/01/12 08:04:53;;;;;;;5.22;4.32;;;;;;;1.01;83.56;98361.31;5098518;28;20068;-65
2021/01/12 08:07:24;;;;;;;4.65;3.95;;;;;;;1.06;83.89;98361.69;5099826;28;20043;-65
2021/01/12 08:09:57;;;;;;;4.20;3.60;;;;;;;1.05;83.90;98360.06;5100871;28;20048;-65
2021/01/12 08:12:24;;;;;;;4.57;3.53;;;;;;;1.07;83.83;98353.75;5097541;28;20048;-64
2021/01/12 08:14:52;;;;;;;5.80;4.35;;;;;;;1.05;84.00;98347.84;5098375;28;20047;-64
2021/01/12 08:17:22;;;;;;;4.78;3.83;;;;;;;1.09;84.18;98351.00;5097162;28;20460;-65
2021/01/12 08:19:49;;;;;;;4.80;4.03;;;;;;;1.10;84.34;98358.69;5097151;28;20135;-65
2021/01/12 08:22:18;;;;;;;6.25;4.70;;;;;;;1.09;84.39;98354.41;5097297;28;20044;-65
2021/01/12 08:24:46;;;;;;;4.32;3.50;;;;;;;1.10;84.17;98350.03;5095686;28;20089;-65
2021/01/12 08:27:17;;;;;;;3.97;3.58;;;;;;;1.07;83.89;98348.53;5096093;28;20040;-65
2021/01/12 08:29:44;;;;;;;3.67;3.35;;;;;;;1.06;83.99;98346.91;5094123;28;20058;-64
2021/01/12 08:32:13;;;;;;;4.50;3.28;;;;;;;1.05;83.86;98360.06;5093567;28;20645;-64
2021/01/12 08:34:45;;;;;;;4.65;3.88;;;;;;;1.08;83.89;98341.56;5096704;28;20048;-64
2021/01/12 08:37:14;;;;;;;3.88;3.35;;;;;;;1.09;83.94;98328.38;5097031;28;20044;-65
2021/01/12 08:39:43;;;;;;;4.50;3.35;;;;;;;1.16;84.35;98344.25;5094412;28;20056;-65
2021/01/12 08:42:11;;;;;;;4.43;3.70;;;;;;;1.19;84.39;98330.97;5095984;28;20046;-65
2021/01/12 08:44:41;;;;;;;5.72;3.92;;;;;;;1.20;84.39;98338.63;5093940;28;20509;-64
2021/01/12 08:47:08;;;;;;;4.55;3.55;;;;;;;1.14;83.91;98341.81;5095905;28;20051;-65
2021/01/12 08:49:36;;;;;;;4.13;3.30;;;;;;;1.18;84.38;98350.13;5094918;28;20406;-66
2021/01/12 08:52:06;;;;;;;3.55;3.22;;;;;;;1.26;84.43;98334.59;5092363;28;20044;-66
2021/01/12 08:54:33;;;;;;;4.22;3.33;;;;;;;1.34;84.34;98347.72;5093562;28;20048;-66
2021/01/12 08:57:03;;;;;;;6.65;4.78;;;;;;;1.30;83.76;98343.75;5100140;28;20052;-66
2021/01/12 08:59:32;;;;;;;5.07;3.70;;;;;;;1.38;84.11;98346.47;5097064;28;20395;-66
2021/01/12 09:02:00;;;;;;;3.53;3.08;;;;;;;1.37;83.78;98344.81;5093600;28;20158;-66
2021/01/12 09:04:30;;;;;;;4.38;3.15;;;;;;;1.37;83.99;98350.03;5091823;28;20048;-66
2021/01/12 09:07:01;;;;;;;3.28;2.95;;;;;;;1.41;84.29;98351.38;5093821;28;20043;-66
2021/01/12 09:09:29;;;;;;;3.25;2.92;;;;;;;1.45;84.19;98357.13;5093638;28;20126;-66
2021/01/12 09:12:10;;;;;;;3.67;3.22;;;;;;;1.45;84.08;98363.16;5093477;28;20502;-66
2021/01/12 09:14:46;;;;;;;2.80;2.60;;;;;;;1.41;83.62;98343.56;5095763;28;20048;-66
2021/01/12 09:17:16;;;;;;;3.55;3.13;;;;;;;1.40;83.66;98357.56;5094472;28;20054;-66
2021/01/12 09:19:49;;;;;;;5.75;3.22;;;;;;;1.42;83.64;98350.41;5094160;28;20101;-66
2021/01/12 09:22:17;;;;;;;4.68;2.90;;;;;;;1.40;83.40;98346.34;5093197;28;20383;-66
2021/01/12 09:24:49;;;;;;;5.57;3.38;;;;;;;1.46;83.60;98350.94;5093230;28;20044;-67
2021/01/12 09:27:20;;;;;;;3.65;3.00;;;;;;;1.44;83.01;98352.88;5093250;28;20520;-66
2021/01/12 09:29:47;;;;;;;4.13;2.97;;;;;;;1.38;82.65;98356.06;5093055;28;20054;-66
2021/01/12 09:32:28;;;;;;;3.17;2.85;;;;;;;1.38;82.44;98335.22;5092594;28;20044;-66
2021/01/12 09:34:56;;;;;;;2.80;2.42;;;;;;;1.41;82.81;98340.16;5093113;28;20397;-66
2021/01/12 09:37:23;;;;;;;2.88;2.50;;;;;;;1.44;82.51;98325.06;5091632;28;20068;-66
2021/01/12 09:39:55;;;;;;;15.25;7.80;;;;;;;1.44;82.31;98347.69;5091241;28;20040;-66
2021/01/12 09:42:24;;;;;;;7.97;5.97;;;;;;;1.46;82.33;98338.72;5092495;28;20040;-67
2021/01/12 09:45:05;;;;;;;3.90;3.50;;;;;;;1.52;82.51;98346.97;5092150;28;20490;-66
2021/01/12 09:47:35;;;;;;;3.22;2.92;;;;;;;1.51;82.32;98337.47;5092402;28;20109;-66
2021/01/12 09:50:03;;;;;;;4.45;3.05;;;;;;;1.46;82.04;98335.31;5092348;28;20048;-66
2021/01/12 09:52:29;;;;;;;3.50;3.20;;;;;;;1.52;82.16;98328.72;5092161;28;20406;-66
2021/01/12 09:54:57;;;;;;;3.42;2.80;;;;;;;1.46;81.73;98335.31;5091757;28;20067;-66
2021/01/12 09:57:24;;;;;;;3.17;2.53;;;;;;;1.59;81.90;98321.94;5091769;28;20043;-66
2021/01/12 09:59:50;;;;;;;3.03;2.72;;;;;;;1.59;81.74;98314.97;5091853;28;20040;-66
2021/01/12 10:02:17;;;;;;;4.07;2.85;;;;;;;1.61;82.21;98323.44;5091938;28;20050;-66
2021/01/12 10:04:45;;;;;;;2.88;2.50;;;;;;;1.67;82.05;98319.41;5091779;28;20486;-66
2021/01/12 10:07:12;;;;;;;2.80;2.58;;;;;;;1.63;81.92;98316.31;5091671;28;20123;-66
2021/01/12 10:09:38;;;;;;;3.28;2.67;;;;;;;1.65;81.99;98316.97;5091966;28;20051;-66
2021/01/12 10:12:06;;;;;;;4.25;3.10;;;;;;;1.66;82.15;98321.19;5095738;28;20044;-66
2021/01/12 10:14:33;;;;;;;2.92;2.63;;;;;;;1.62;81.74;98324.25;5095615;28;20494;-67
2021/01/12 10:17:00;;;;;;;2.72;2.42;;;;;;;1.67;81.94;98329.84;5095582;28;20416;-67
2021/01/12 10:19:27;;;;;;;2.83;2.50;;;;;;;1.66;81.89;98316.00;5095679;28;20101;-66
2021/01/12 10:21:53;;;;;;;2.90;2.67;;;;;;;1.64;81.71;98317.13;5095560;28;20040;-66
2021/01/12 10:24:22;;;;;;;3.45;2.28;;;;;;;1.65;81.54;98322.19;5095721;28;20040;-67
2021/01/12 10:26:52;;;;;;;3.33;3.03;;;;;;;1.70;81.79;98316.50;5095667;28;20036;-66
2021/01/12 10:29:20;;;;;;;3.78;2.72;;;;;;;1.69;81.63;98335.72;5095662;28;20115;-66
2021/01/12 10:31:49;;;;;;;3.97;2.70;;;;;;;1.77;81.69;98311.53;5095718;28;20047;-66
2021/01/12 10:34:16;;;;;;;3.05;2.15;;;;;;;1.78;81.21;98318.38;5093983;28;20085;-67
2021/01/12 10:36:43;;;;;;;2.67;2.40;;;;;;;1.76;81.38;98328.97;5095544;28;20044;-66
2021/01/12 10:39:10;;;;;;;2.33;2.13;;;;;;;1.71;81.15;98311.19;5095551;28;20048;-65
2021/01/12 10:41:40;;;;;;;2.42;2.15;;;;;;;1.67;81.52;98325.47;5095296;28;20055;-65
2021/01/12 10:44:07;;;;;;;3.50;2.90;;;;;;;1.71;81.70;98323.34;5095179;28;20044;-65
2021/01/12 10:46:35;;;;;;;3.08;2.78;;;;;;;1.81;81.92;98308.47;5095317;28;20051;-65
2021/01/12 10:49:02;;;;;;;2.67;2.47;;;;;;;1.84;81.78;98317.81;5095359;28;20563;-65
2021/01/12 10:51:29;;;;;;;2.50;2.28;;;;;;;1.80;81.44;98303.44;5095165;28;20127;-66
2021/01/12 10:53:55;;;;;;;2.70;2.50;;;;;;;1.85;81.62;98309.81;5095486;28;20048;-66
2021/01/12 10:56:22;;;;;;;3.20;2.90;;;;;;;1.83;81.39;98298.72;5094988;28;20444;-66
2021/01/12 10:58:49;;;;;;;3.35;3.05;;;;;;;1.88;81.39;98301.72;5095041;28;20037;-66
2021/01/12 11:01:16;;;;;;;3.92;3.20;;;;;;;1.89;80.96;98297.31;5096453;28;20040;-66
2021/01/12 11:03:45;;;;;;;3.30;3.00;;;;;;;1.82;80.91;98291.88;5097747;28;20076;-66
2021/01/12 11:06:12;;;;;;;2.78;2.38;;;;;;;1.84;81.16;98292.56;5098197;28;20078;-66
2021/01/12 11:08:39;;;;;;;3.00;2.67;;;;;;;1.83;81.23;98292.69;5095878;28;20127;-66
2021/01/12 11:11:05;;;;;;;2.88;2.60;;;;;;;1.85;81.34;98275.13;5095343;28;20055;-67
2021/01/12 11:13:32;;;;;;;3.50;2.75;;;;;;;1.89;81.34;98279.06;5095327;28;20040;-66
2021/01/12 11:15:59;;;;;;;3.08;2.40;;;;;;;1.88;81.19;98278.25;5094982;28;20040;-66
2021/01/12 11:18:26;;;;;;;3.15;2.78;;;;;;;1.92;81.05;98274.38;5093597;28;20513;-66
2021/01/12 11:20:54;;;;;;;2.53;2.33;;;;;;;1.96;80.92;98265.28;5095080;28;20048;-66
2021/01/12 11:23:21;;;;;;;3.58;3.10;;;;;;;1.90;80.67;98267.66;5094131;28;20505;-66
2021/01/12 11:25:48;;;;;;;3.20;2.58;;;;;;;1.88;80.77;98264.41;5094627;28;20494;-66
2021/01/12 11:28:15;;;;;;;4.47;2.85;;;;;;;1.88;80.96;98254.78;5093969;28;20047;-66
2021/01/12 11:30:42;;;;;;;3.33;2.63;;;;;;;1.96;81.15;98257.47;5095713;28;20127;-67
2021/01/12 11:33:10;;;;;;;4.03;2.83;;;;;;;1.98;80.88;98255.50;5095257;28;20040;-67
2021/01/12 11:35:37;;;;;;;4.32;3.05;;;;;;;1.99;80.93;98246.72;5095243;28;20040;-67
2021/01/12 11:38:05;;;;;;;5.43;3.03;;;;;;;2.03;80.90;98242.03;5095445;28;20040;-67
2021/01/12 11:40:31;;;;;;;3.75;2.63;;;;;;;2.01;80.68;98253.59;5095426;28;20047;-67